sensor_id;sensor_type;location;lat;lon;timestamp;P1;durP1;ratioP1;P2;durP2;ratioP2
46391;SDS011;32098;49.448;7.904;2022-07-29T00:02:13;5.43;;;3.25;;
46391;SDS011;32098;49.448;7.904;2022-07-29T00:04:40;5.90;;;3.38;;
46391;SDS011;32098;49.448;7.904;2022-07-29T00:07:07;5.50;;;3.00;;
46391;SDS011;32098;49.448;7.904;2022-07-29T00:09:33;3.83;;;2.90;;
46391;SDS011;32098;49.448;7.904;2022-07-29T00:12:18;4.75;;;3.33;;
46391;SDS011;32098;49.448;7.904;2022-07-29T00:14:54;2.90;;;2.70;;
46391;SDS011;32098;49.448;7.904;2022-07-29T00:17:21;4.53;;;2.90;;
46391;SDS011;32098;49.448;7.904;2022-07-29T00:19:51;4.15;;;3.53;;
46391;SDS011;32098;49.448;7.904;2022-07-29T00:22:18;3.25;;;2.65;;
46391;SDS011;32098;49.448;7.904;2022-07-29T00:24:46;5.18;;;2.90;;
46391;SDS011;32098;49.448;7.904;2022-07-29T00:27:13;3.78;;;3.00;;
46391;SDS011;32098;49.448;7.904;2022-07-29T00:29:40;4.57;;;2.70;;
46391;SDS011;32098;49.448;7.904;2022-07-29T00:32:07;3.38;;;2.95;;
46391;SDS011;32098;49.448;7.904;2022-07-29T00:34:34;3.03;;;2.60;;
46391;SDS011;32098;49.448;7.904;2022-07-29T00:37:19;3.17;;;2.53;;
46391;SDS011;32098;49.448;7.904;2022-07-29T00:39:45;4.53;;;3.30;;
46391;SDS011;32098;49.448;7.904;2022-07-29T00:42:12;6.70;;;3.15;;
46391;SDS011;32098;49.448;7.904;2022-07-29T00:44:40;4.22;;;2.92;;
46391;SDS011;32098;49.448;7.904;2022-07-29T00:47:08;3.80;;;3.42;;
46391;SDS011;32098;49.448;7.904;2022-07-29T00:49:36;5.07;;;3.22;;
46391;SDS011;32098;49.448;7.904;2022-07-29T00:52:05;6.70;;;3.17;;
46391;SDS011;32098;49.448;7.904;2022-07-29T00:54:33;4.15;;;2.60;;
46391;SDS011;32098;49.448;7.904;2022-07-29T00:57:08;4.60;;;3.05;;
46391;SDS011;32098;49.448;7.904;2022-07-29T00:59:35;5.05;;;2.92;;
46391;SDS011;32098;49.448;7.904;2022-07-29T01:02:02;5.03;;;2.60;;
46391;SDS011;32098;49.448;7.904;2022-07-29T01:04:30;5.03;;;2.42;;
46391;SDS011;32098;49.448;7.904;2022-07-29T01:06:57;3.53;;;2.53;;
46391;SDS011;32098;49.448;7.904;2022-07-29T01:09:24;4.28;;;2.55;;
46391;SDS011;32098;49.448;7.904;2022-07-29T01:12:19;3.65;;;2.30;;
46391;SDS011;32098;49.448;7.904;2022-07-29T01:14:50;2.53;;;2.30;;
46391;SDS011;32098;49.448;7.904;2022-07-29T01:17:23;4.78;;;2.30;;
46391;SDS011;32098;49.448;7.904;2022-07-29T01:19:56;2.88;;;2.53;;
46391;SDS011;32098;49.448;7.904;2022-07-29T01:25:12;3.55;;;3.13;;
46391;SDS011;32098;49.448;7.904;2022-07-29T01:27:56;4.97;;;3.13;;
46391;SDS011;32098;49.448;7.904;2022-07-29T01:30:37;3.15;;;2.50;;
46391;SDS011;32098;49.448;7.904;2022-07-29T01:33:10;4.75;;;3.38;;
46391;SDS011;32098;49.448;7.904;2022-07-29T01:36:01;3.42;;;3.13;;
46391;SDS011;32098;49.448;7.904;2022-07-29T01:38:30;3.50;;;3.20;;
46391;SDS011;32098;49.448;7.904;2022-07-29T01:41:05;5.20;;;3.50;;
46391;SDS011;32098;49.448;7.904;2022-07-29T01:43:38;4.32;;;3.40;;
46391;SDS011;32098;49.448;7.904;2022-07-29T01:46:11;6.05;;;3.70;;
46391;SDS011;32098;49.448;7.904;2022-07-29T01:48:47;3.80;;;3.30;;
46391;SDS011;32098;49.448;7.904;2022-07-29T01:51:19;4.28;;;3.47;;
46391;SDS011;32098;49.448;7.904;2022-07-29T01:53:51;4.40;;;3.33;;
46391;SDS011;32098;49.448;7.904;2022-07-29T01:56:24;5.68;;;3.10;;
46391;SDS011;32098;49.448;7.904;2022-07-29T01:58:56;3.53;;;3.22;;
46391;SDS011;32098;49.448;7.904;2022-07-29T02:01:24;4.03;;;3.13;;
46391;SDS011;32098;49.448;7.904;2022-07-29T02:03:53;4.60;;;3.22;;
46391;SDS011;32098;49.448;7.904;2022-07-29T02:06:22;3.20;;;2.80;;
46391;SDS011;32098;49.448;7.904;2022-07-29T02:08:49;3.90;;;2.67;;
46391;SDS011;32098;49.448;7.904;2022-07-29T02:11:18;2.83;;;2.50;;
46391;SDS011;32098;49.448;7.904;2022-07-29T02:13:45;3.22;;;2.53;;
46391;SDS011;32098;49.448;7.904;2022-07-29T02:16:13;3.90;;;3.28;;
46391;SDS011;32098;49.448;7.904;2022-07-29T02:18:43;5.05;;;3.67;;
46391;SDS011;32098;49.448;7.904;2022-07-29T02:21:13;4.90;;;3.65;;
46391;SDS011;32098;49.448;7.904;2022-07-29T02:23:45;4.82;;;3.67;;
46391;SDS011;32098;49.448;7.904;2022-07-29T02:26:17;4.57;;;3.53;;
46391;SDS011;32098;49.448;7.904;2022-07-29T02:28:44;3.90;;;3.50;;
46391;SDS011;32098;49.448;7.904;2022-07-29T02:31:12;3.88;;;3.47;;
46391;SDS011;32098;49.448;7.904;2022-07-29T02:33:40;3.58;;;3.28;;
46391;SDS011;32098;49.448;7.904;2022-07-29T02:36:09;3.70;;;3.40;;
46391;SDS011;32098;49.448;7.904;2022-07-29T02:38:36;5.65;;;3.85;;
46391;SDS011;32098;49.448;7.904;2022-07-29T02:41:23;4.07;;;3.35;;
46391;SDS011;32098;49.448;7.904;2022-07-29T02:47:04;3.70;;;3.05;;
46391;SDS011;32098;49.448;7.904;2022-07-29T02:52:42;4.65;;;3.63;;
46391;SDS011;32098;49.448;7.904;2022-07-29T03:00:28;3.90;;;3.50;;
46391;SDS011;32098;49.448;7.904;2022-07-29T03:02:58;4.45;;;3.60;;
46391;SDS011;32098;49.448;7.904;2022-07-29T03:05:28;4.40;;;3.47;;
46391;SDS011;32098;49.448;7.904;2022-07-29T03:07:57;5.03;;;4.00;;
46391;SDS011;32098;49.448;7.904;2022-07-29T03:10:28;4.22;;;3.92;;
46391;SDS011;32098;49.448;7.904;2022-07-29T03:12:55;6.15;;;4.00;;
46391;SDS011;32098;49.448;7.904;2022-07-29T03:15:24;5.20;;;3.90;;
46391;SDS011;32098;49.448;7.904;2022-07-29T03:17:52;6.50;;;4.10;;
46391;SDS011;32098;49.448;7.904;2022-07-29T03:20:19;4.78;;;3.60;;
46391;SDS011;32098;49.448;7.904;2022-07-29T03:22:47;5.25;;;4.47;;
46391;SDS011;32098;49.448;7.904;2022-07-29T03:25:14;4.03;;;3.55;;
46391;SDS011;32098;49.448;7.904;2022-07-29T03:27:42;5.47;;;4.15;;
46391;SDS011;32098;49.448;7.904;2022-07-29T03:30:09;4.78;;;4.20;;
46391;SDS011;32098;49.448;7.904;2022-07-29T03:32:43;5.45;;;3.95;;
46391;SDS011;32098;49.448;7.904;2022-07-29T03:35:10;4.45;;;4.03;;
46391;SDS011;32098;49.448;7.904;2022-07-29T03:37:36;4.72;;;4.10;;
46391;SDS011;32098;49.448;7.904;2022-07-29T03:40:05;4.05;;;3.63;;
46391;SDS011;32098;49.448;7.904;2022-07-29T03:42:35;5.75;;;3.92;;
46391;SDS011;32098;49.448;7.904;2022-07-29T03:45:07;6.18;;;4.10;;
46391;SDS011;32098;49.448;7.904;2022-07-29T03:47:39;4.35;;;3.95;;
46391;SDS011;32098;49.448;7.904;2022-07-29T03:50:17;4.40;;;4.00;;
46391;SDS011;32098;49.448;7.904;2022-07-29T03:52:47;8.57;;;4.10;;
46391;SDS011;32098;49.448;7.904;2022-07-29T03:55:14;7.72;;;4.20;;
46391;SDS011;32098;49.448;7.904;2022-07-29T03:57:41;4.63;;;3.78;;
46391;SDS011;32098;49.448;7.904;2022-07-29T04:00:09;3.97;;;3.40;;
46391;SDS011;32098;49.448;7.904;2022-07-29T04:02:36;5.22;;;3.85;;
46391;SDS011;32098;49.448;7.904;2022-07-29T04:05:04;6.03;;;3.90;;
46391;SDS011;32098;49.448;7.904;2022-07-29T04:07:31;5.93;;;4.00;;
46391;SDS011;32098;49.448;7.904;2022-07-29T04:09:57;4.30;;;3.60;;
46391;SDS011;32098;49.448;7.904;2022-07-29T04:12:24;6.05;;;3.80;;
46391;SDS011;32098;49.448;7.904;2022-07-29T04:14:51;5.35;;;3.80;;
46391;SDS011;32098;49.448;7.904;2022-07-29T04:17:17;4.63;;;4.10;;
46391;SDS011;32098;49.448;7.904;2022-07-29T04:19:43;4.82;;;3.80;;
46391;SDS011;32098;49.448;7.904;2022-07-29T04:22:10;4.20;;;3.80;;
46391;SDS011;32098;49.448;7.904;2022-07-29T04:24:36;4.70;;;4.00;;
46391;SDS011;32098;49.448;7.904;2022-07-29T04:27:03;6.28;;;4.10;;
46391;SDS011;32098;49.448;7.904;2022-07-29T04:29:29;5.40;;;4.53;;
46391;SDS011;32098;49.448;7.904;2022-07-29T04:31:56;5.15;;;3.65;;
46391;SDS011;32098;49.448;7.904;2022-07-29T04:34:22;3.95;;;3.58;;
46391;SDS011;32098;49.448;7.904;2022-07-29T04:36:53;5.43;;;4.10;;
46391;SDS011;32098;49.448;7.904;2022-07-29T04:39:20;8.90;;;3.80;;
46391;SDS011;32098;49.448;7.904;2022-07-29T04:41:48;7.45;;;4.03;;
46391;SDS011;32098;49.448;7.904;2022-07-29T04:44:17;4.85;;;3.97;;
46391;SDS011;32098;49.448;7.904;2022-07-29T04:46:45;4.90;;;3.97;;
46391;SDS011;32098;49.448;7.904;2022-07-29T04:49:12;4.95;;;3.75;;
46391;SDS011;32098;49.448;7.904;2022-07-29T04:51:39;5.53;;;3.97;;
46391;SDS011;32098;49.448;7.904;2022-07-29T04:54:05;6.78;;;4.50;;
46391;SDS011;32098;49.448;7.904;2022-07-29T04:56:32;4.38;;;4.00;;
46391;SDS011;32098;49.448;7.904;2022-07-29T04:58:58;4.53;;;4.00;;
46391;SDS011;32098;49.448;7.904;2022-07-29T05:01:25;7.13;;;4.47;;
46391;SDS011;32098;49.448;7.904;2022-07-29T05:03:52;5.95;;;4.00;;
46391;SDS011;32098;49.448;7.904;2022-07-29T05:06:25;5.93;;;4.22;;
46391;SDS011;32098;49.448;7.904;2022-07-29T05:08:51;6.22;;;3.83;;
46391;SDS011;32098;49.448;7.904;2022-07-29T05:11:18;5.05;;;4.15;;
46391;SDS011;32098;49.448;7.904;2022-07-29T05:13:48;5.57;;;4.18;;
46391;SDS011;32098;49.448;7.904;2022-07-29T05:16:14;7.60;;;4.90;;
46391;SDS011;32098;49.448;7.904;2022-07-29T05:18:41;5.25;;;3.67;;
46391;SDS011;32098;49.448;7.904;2022-07-29T05:21:08;6.90;;;3.90;;
46391;SDS011;32098;49.448;7.904;2022-07-29T05:23:35;5.30;;;4.25;;
46391;SDS011;32098;49.448;7.904;2022-07-29T05:26:01;5.50;;;3.72;;
46391;SDS011;32098;49.448;7.904;2022-07-29T05:28:28;4.30;;;3.90;;
46391;SDS011;32098;49.448;7.904;2022-07-29T05:30:55;5.80;;;4.35;;
46391;SDS011;32098;49.448;7.904;2022-07-29T05:33:22;6.57;;;4.20;;
46391;SDS011;32098;49.448;7.904;2022-07-29T05:36:02;6.72;;;3.97;;
46391;SDS011;32098;49.448;7.904;2022-07-29T05:38:36;6.25;;;4.10;;
46391;SDS011;32098;49.448;7.904;2022-07-29T05:41:03;5.50;;;3.60;;
46391;SDS011;32098;49.448;7.904;2022-07-29T05:43:30;6.13;;;4.07;;
46391;SDS011;32098;49.448;7.904;2022-07-29T05:45:57;4.22;;;3.40;;
46391;SDS011;32098;49.448;7.904;2022-07-29T05:48:24;5.88;;;3.28;;
46391;SDS011;32098;49.448;7.904;2022-07-29T05:50:51;5.30;;;3.35;;
46391;SDS011;32098;49.448;7.904;2022-07-29T05:53:18;3.88;;;2.95;;
46391;SDS011;32098;49.448;7.904;2022-07-29T05:55:49;3.67;;;3.03;;
46391;SDS011;32098;49.448;7.904;2022-07-29T05:58:16;4.28;;;2.80;;
46391;SDS011;32098;49.448;7.904;2022-07-29T06:00:42;4.10;;;2.60;;
46391;SDS011;32098;49.448;7.904;2022-07-29T06:03:09;6.18;;;3.17;;
46391;SDS011;32098;49.448;7.904;2022-07-29T06:05:35;3.25;;;2.95;;
46391;SDS011;32098;49.448;7.904;2022-07-29T06:08:02;5.85;;;2.78;;
46391;SDS011;32098;49.448;7.904;2022-07-29T06:10:31;6.38;;;3.67;;
46391;SDS011;32098;49.448;7.904;2022-07-29T06:12:58;7.97;;;3.10;;
46391;SDS011;32098;49.448;7.904;2022-07-29T06:15:24;6.28;;;3.20;;
46391;SDS011;32098;49.448;7.904;2022-07-29T06:17:51;4.30;;;2.80;;
46391;SDS011;32098;49.448;7.904;2022-07-29T06:20:25;3.97;;;3.13;;
46391;SDS011;32098;49.448;7.904;2022-07-29T06:22:53;4.53;;;2.90;;
46391;SDS011;32098;49.448;7.904;2022-07-29T06:25:19;6.03;;;3.03;;
46391;SDS011;32098;49.448;7.904;2022-07-29T06:27:46;4.07;;;2.80;;
46391;SDS011;32098;49.448;7.904;2022-07-29T06:30:12;4.03;;;2.70;;
46391;SDS011;32098;49.448;7.904;2022-07-29T06:32:39;4.00;;;3.03;;
46391;SDS011;32098;49.448;7.904;2022-07-29T06:35:08;4.80;;;2.78;;
46391;SDS011;32098;49.448;7.904;2022-07-29T06:37:55;3.35;;;2.85;;
46391;SDS011;32098;49.448;7.904;2022-07-29T06:40:25;3.30;;;3.00;;
46391;SDS011;32098;49.448;7.904;2022-07-29T06:43:10;4.53;;;2.63;;
46391;SDS011;32098;49.448;7.904;2022-07-29T06:45:37;3.08;;;2.78;;
46391;SDS011;32098;49.448;7.904;2022-07-29T06:48:07;5.68;;;3.05;;
46391;SDS011;32098;49.448;7.904;2022-07-29T06:50:33;6.03;;;2.95;;
46391;SDS011;32098;49.448;7.904;2022-07-29T06:53:01;5.30;;;2.65;;
46391;SDS011;32098;49.448;7.904;2022-07-29T06:55:27;5.85;;;2.83;;
46391;SDS011;32098;49.448;7.904;2022-07-29T06:57:54;6.22;;;3.10;;
46391;SDS011;32098;49.448;7.904;2022-07-29T07:00:21;3.70;;;2.70;;
46391;SDS011;32098;49.448;7.904;2022-07-29T07:03:11;2.35;;;2.10;;
46391;SDS011;32098;49.448;7.904;2022-07-29T07:05:38;6.60;;;2.50;;
46391;SDS011;32098;49.448;7.904;2022-07-29T07:08:05;4.03;;;2.40;;
46391;SDS011;32098;49.448;7.904;2022-07-29T07:10:32;2.97;;;2.30;;
46391;SDS011;32098;49.448;7.904;2022-07-29T07:12:59;2.50;;;2.28;;
46391;SDS011;32098;49.448;7.904;2022-07-29T07:15:25;4.65;;;2.38;;
46391;SDS011;32098;49.448;7.904;2022-07-29T07:18:05;3.47;;;2.28;;
46391;SDS011;32098;49.448;7.904;2022-07-29T07:20:32;4.90;;;2.45;;
46391;SDS011;32098;49.448;7.904;2022-07-29T07:23:00;2.92;;;2.33;;
46391;SDS011;32098;49.448;7.904;2022-07-29T07:25:26;4.03;;;2.63;;
46391;SDS011;32098;49.448;7.904;2022-07-29T07:27:53;6.65;;;2.50;;
46391;SDS011;32098;49.448;7.904;2022-07-29T07:30:20;4.90;;;2.80;;
46391;SDS011;32098;49.448;7.904;2022-07-29T07:32:46;4.03;;;2.72;;
46391;SDS011;32098;49.448;7.904;2022-07-29T07:35:13;6.28;;;2.80;;
46391;SDS011;32098;49.448;7.904;2022-07-29T07:37:41;5.80;;;2.55;;
46391;SDS011;32098;49.448;7.904;2022-07-29T07:40:08;4.10;;;2.70;;
46391;SDS011;32098;49.448;7.904;2022-07-29T07:42:36;8.45;;;3.03;;
46391;SDS011;32098;49.448;7.904;2022-07-29T07:45:05;4.90;;;2.63;;
46391;SDS011;32098;49.448;7.904;2022-07-29T07:47:42;6.20;;;2.88;;
46391;SDS011;32098;49.448;7.904;2022-07-29T07:50:09;3.13;;;2.40;;
46391;SDS011;32098;49.448;7.904;2022-07-29T07:52:47;6.18;;;2.90;;
46391;SDS011;32098;49.448;7.904;2022-07-29T07:55:15;3.30;;;2.42;;
46391;SDS011;32098;49.448;7.904;2022-07-29T07:57:43;2.80;;;2.60;;
46391;SDS011;32098;49.448;7.904;2022-07-29T08:00:11;5.95;;;2.65;;
46391;SDS011;32098;49.448;7.904;2022-07-29T08:02:39;4.30;;;2.75;;
46391;SDS011;32098;49.448;7.904;2022-07-29T08:05:06;3.40;;;2.78;;
46391;SDS011;32098;49.448;7.904;2022-07-29T08:07:38;5.07;;;2.88;;
46391;SDS011;32098;49.448;7.904;2022-07-29T08:10:04;4.28;;;2.90;;
46391;SDS011;32098;49.448;7.904;2022-07-29T08:12:31;6.47;;;2.75;;
46391;SDS011;32098;49.448;7.904;2022-07-29T08:14:58;4.43;;;2.70;;
46391;SDS011;32098;49.448;7.904;2022-07-29T08:17:24;5.38;;;3.45;;
46391;SDS011;32098;49.448;7.904;2022-07-29T08:19:52;4.97;;;2.92;;
46391;SDS011;32098;49.448;7.904;2022-07-29T08:22:19;3.78;;;2.88;;
46391;SDS011;32098;49.448;7.904;2022-07-29T08:24:45;4.75;;;2.80;;
46391;SDS011;32098;49.448;7.904;2022-07-29T08:27:22;4.75;;;2.90;;
46391;SDS011;32098;49.448;7.904;2022-07-29T08:30:09;4.15;;;2.92;;
46391;SDS011;32098;49.448;7.904;2022-07-29T08:32:36;4.80;;;3.00;;
46391;SDS011;32098;49.448;7.904;2022-07-29T08:35:19;3.53;;;2.70;;
46391;SDS011;32098;49.448;7.904;2022-07-29T08:37:46;3.92;;;2.70;;
46391;SDS011;32098;49.448;7.904;2022-07-29T08:40:13;4.63;;;3.20;;
46391;SDS011;32098;49.448;7.904;2022-07-29T08:42:40;3.15;;;2.85;;
46391;SDS011;32098;49.448;7.904;2022-07-29T08:45:08;3.53;;;2.60;;
46391;SDS011;32098;49.448;7.904;2022-07-29T08:47:34;3.97;;;2.95;;
46391;SDS011;32098;49.448;7.904;2022-07-29T08:50:08;5.38;;;2.95;;
46391;SDS011;32098;49.448;7.904;2022-07-29T08:52:37;5.85;;;3.20;;
46391;SDS011;32098;49.448;7.904;2022-07-29T08:55:09;4.45;;;3.25;;
46391;SDS011;32098;49.448;7.904;2022-07-29T08:57:37;7.97;;;2.80;;
46391;SDS011;32098;49.448;7.904;2022-07-29T09:00:19;4.25;;;3.00;;
46391;SDS011;32098;49.448;7.904;2022-07-29T09:02:48;4.60;;;3.20;;
46391;SDS011;32098;49.448;7.904;2022-07-29T09:05:21;5.78;;;3.20;;
46391;SDS011;32098;49.448;7.904;2022-07-29T09:07:49;5.25;;;3.45;;
46391;SDS011;32098;49.448;7.904;2022-07-29T09:10:17;3.90;;;3.47;;
46391;SDS011;32098;49.448;7.904;2022-07-29T09:12:43;3.55;;;3.20;;
46391;SDS011;32098;49.448;7.904;2022-07-29T09:15:10;4.90;;;3.47;;
46391;SDS011;32098;49.448;7.904;2022-07-29T09:17:43;3.83;;;3.30;;
46391;SDS011;32098;49.448;7.904;2022-07-29T09:20:11;3.72;;;3.13;;
46391;SDS011;32098;49.448;7.904;2022-07-29T09:22:40;5.25;;;3.33;;
46391;SDS011;32098;49.448;7.904;2022-07-29T09:25:07;4.35;;;3.30;;
46391;SDS011;32098;49.448;7.904;2022-07-29T09:27:35;4.55;;;3.00;;
46391;SDS011;32098;49.448;7.904;2022-07-29T09:30:05;5.53;;;2.97;;
46391;SDS011;32098;49.448;7.904;2022-07-29T09:32:53;7.28;;;3.33;;
46391;SDS011;32098;49.448;7.904;2022-07-29T09:35:21;4.75;;;3.30;;
46391;SDS011;32098;49.448;7.904;2022-07-29T09:37:49;4.65;;;3.10;;
46391;SDS011;32098;49.448;7.904;2022-07-29T09:40:20;5.13;;;3.63;;
46391;SDS011;32098;49.448;7.904;2022-07-29T09:42:49;7.72;;;3.40;;
46391;SDS011;32098;49.448;7.904;2022-07-29T09:45:30;5.60;;;3.58;;
46391;SDS011;32098;49.448;7.904;2022-07-29T09:47:57;5.72;;;3.30;;
46391;SDS011;32098;49.448;7.904;2022-07-29T09:50:36;4.57;;;3.58;;
46391;SDS011;32098;49.448;7.904;2022-07-29T09:53:03;4.90;;;3.30;;
46391;SDS011;32098;49.448;7.904;2022-07-29T09:55:30;4.10;;;3.00;;
46391;SDS011;32098;49.448;7.904;2022-07-29T09:58:14;4.85;;;3.20;;
46391;SDS011;32098;49.448;7.904;2022-07-29T10:00:45;6.55;;;3.13;;
46391;SDS011;32098;49.448;7.904;2022-07-29T10:03:13;3.00;;;2.70;;
46391;SDS011;32098;49.448;7.904;2022-07-29T10:05:41;7.72;;;3.60;;
46391;SDS011;32098;49.448;7.904;2022-07-29T10:08:10;3.67;;;2.95;;
46391;SDS011;32098;49.448;7.904;2022-07-29T10:10:39;4.55;;;3.10;;
46391;SDS011;32098;49.448;7.904;2022-07-29T10:13:11;3.58;;;3.28;;
46391;SDS011;32098;49.448;7.904;2022-07-29T10:15:42;5.00;;;3.40;;
46391;SDS011;32098;49.448;7.904;2022-07-29T10:18:12;4.68;;;3.15;;
46391;SDS011;32098;49.448;7.904;2022-07-29T10:20:40;4.25;;;2.80;;
46391;SDS011;32098;49.448;7.904;2022-07-29T10:23:08;3.10;;;2.80;;
46391;SDS011;32098;49.448;7.904;2022-07-29T10:25:35;8.20;;;3.25;;
46391;SDS011;32098;49.448;7.904;2022-07-29T10:28:01;8.48;;;3.20;;
46391;SDS011;32098;49.448;7.904;2022-07-29T10:30:28;3.28;;;2.97;;
46391;SDS011;32098;49.448;7.904;2022-07-29T10:36:35;4.32;;;3.15;;
46391;SDS011;32098;49.448;7.904;2022-07-29T10:39:19;4.47;;;3.15;;
46391;SDS011;32098;49.448;7.904;2022-07-29T10:42:18;4.15;;;2.95;;
46391;SDS011;32098;49.448;7.904;2022-07-29T10:44:59;3.75;;;2.97;;
46391;SDS011;32098;49.448;7.904;2022-07-29T10:47:29;7.03;;;3.53;;
46391;SDS011;32098;49.448;7.904;2022-07-29T10:49:58;3.58;;;2.70;;
46391;SDS011;32098;49.448;7.904;2022-07-29T10:52:52;5.55;;;3.00;;
46391;SDS011;32098;49.448;7.904;2022-07-29T10:55:33;2.80;;;2.60;;
46391;SDS011;32098;49.448;7.904;2022-07-29T10:58:12;3.40;;;3.10;;
46391;SDS011;32098;49.448;7.904;2022-07-29T11:00:40;6.03;;;3.28;;
46391;SDS011;32098;49.448;7.904;2022-07-29T11:03:41;3.40;;;2.65;;
46391;SDS011;32098;49.448;7.904;2022-07-29T11:09:25;7.38;;;3.30;;
46391;SDS011;32098;49.448;7.904;2022-07-29T11:12:03;5.45;;;3.03;;
46391;SDS011;32098;49.448;7.904;2022-07-29T11:17:18;4.85;;;3.60;;
46391;SDS011;32098;49.448;7.904;2022-07-29T11:19:46;3.42;;;3.10;;
46391;SDS011;32098;49.448;7.904;2022-07-29T11:22:33;5.78;;;3.20;;
46391;SDS011;32098;49.448;7.904;2022-07-29T11:25:14;8.55;;;3.20;;
46391;SDS011;32098;49.448;7.904;2022-07-29T11:27:43;4.57;;;3.30;;
46391;SDS011;32098;49.448;7.904;2022-07-29T11:30:11;4.05;;;3.10;;
46391;SDS011;32098;49.448;7.904;2022-07-29T11:32:40;4.70;;;3.30;;
46391;SDS011;32098;49.448;7.904;2022-07-29T11:46:16;3.92;;;2.72;;
46391;SDS011;32098;49.448;7.904;2022-07-29T11:49:04;4.30;;;2.70;;
46391;SDS011;32098;49.448;7.904;2022-07-29T11:51:35;5.18;;;2.70;;
46391;SDS011;32098;49.448;7.904;2022-07-29T11:54:13;4.75;;;2.67;;
46391;SDS011;32098;49.448;7.904;2022-07-29T11:56:52;3.33;;;2.53;;
46391;SDS011;32098;49.448;7.904;2022-07-29T11:59:20;3.83;;;2.60;;
46391;SDS011;32098;49.448;7.904;2022-07-29T12:04:50;2.97;;;2.67;;
46391;SDS011;32098;49.448;7.904;2022-07-29T12:07:31;3.38;;;2.72;;
46391;SDS011;32098;49.448;7.904;2022-07-29T12:10:01;3.38;;;2.88;;
46391;SDS011;32098;49.448;7.904;2022-07-29T12:12:28;4.05;;;2.78;;
46391;SDS011;32098;49.448;7.904;2022-07-29T12:14:55;3.28;;;2.70;;
46391;SDS011;32098;49.448;7.904;2022-07-29T12:17:32;3.80;;;3.08;;
46391;SDS011;32098;49.448;7.904;2022-07-29T12:20:00;4.97;;;2.80;;
46391;SDS011;32098;49.448;7.904;2022-07-29T12:22:30;4.78;;;2.50;;
46391;SDS011;32098;49.448;7.904;2022-07-29T12:25:03;3.95;;;2.50;;
46391;SDS011;32098;49.448;7.904;2022-07-29T12:28:02;3.83;;;2.88;;
46391;SDS011;32098;49.448;7.904;2022-07-29T12:30:37;4.05;;;2.72;;
46391;SDS011;32098;49.448;7.904;2022-07-29T12:33:10;3.78;;;2.50;;
46391;SDS011;32098;49.448;7.904;2022-07-29T12:35:39;3.10;;;2.80;;
46391;SDS011;32098;49.448;7.904;2022-07-29T12:38:06;3.60;;;2.33;;
46391;SDS011;32098;49.448;7.904;2022-07-29T12:40:32;3.58;;;2.53;;
46391;SDS011;32098;49.448;7.904;2022-07-29T12:45:38;3.05;;;2.67;;
46391;SDS011;32098;49.448;7.904;2022-07-29T12:48:09;5.18;;;2.40;;
46391;SDS011;32098;49.448;7.904;2022-07-29T12:50:37;3.08;;;2.33;;
46391;SDS011;32098;49.448;7.904;2022-07-29T12:53:19;4.10;;;2.22;;
46391;SDS011;32098;49.448;7.904;2022-07-29T12:55:46;2.90;;;2.22;;
46391;SDS011;32098;49.448;7.904;2022-07-29T12:58:31;2.90;;;2.67;;
46391;SDS011;32098;49.448;7.904;2022-07-29T13:01:03;3.75;;;2.45;;
46391;SDS011;32098;49.448;7.904;2022-07-29T13:03:47;2.35;;;2.15;;
46391;SDS011;32098;49.448;7.904;2022-07-29T13:06:42;4.78;;;2.60;;
46391;SDS011;32098;49.448;7.904;2022-07-29T13:09:13;4.10;;;2.60;;
46391;SDS011;32098;49.448;7.904;2022-07-29T13:11:43;2.67;;;2.22;;
46391;SDS011;32098;49.448;7.904;2022-07-29T13:14:28;3.15;;;2.40;;
46391;SDS011;32098;49.448;7.904;2022-07-29T13:17:10;4.07;;;2.28;;
46391;SDS011;32098;49.448;7.904;2022-07-29T13:19:50;3.53;;;2.30;;
46391;SDS011;32098;49.448;7.904;2022-07-29T13:22:20;3.85;;;2.25;;
46391;SDS011;32098;49.448;7.904;2022-07-29T13:24:57;2.65;;;2.10;;
46391;SDS011;32098;49.448;7.904;2022-07-29T13:27:26;3.45;;;2.00;;
46391;SDS011;32098;49.448;7.904;2022-07-29T13:29:54;3.88;;;2.10;;
46391;SDS011;32098;49.448;7.904;2022-07-29T13:32:26;3.45;;;2.20;;
46391;SDS011;32098;49.448;7.904;2022-07-29T13:34:58;3.95;;;2.20;;
46391;SDS011;32098;49.448;7.904;2022-07-29T13:37:30;6.45;;;2.20;;
46391;SDS011;32098;49.448;7.904;2022-07-29T13:40:00;3.55;;;2.20;;
46391;SDS011;32098;49.448;7.904;2022-07-29T13:42:29;2.33;;;2.10;;
46391;SDS011;32098;49.448;7.904;2022-07-29T13:44:56;3.55;;;2.20;;
46391;SDS011;32098;49.448;7.904;2022-07-29T13:47:22;5.28;;;2.00;;
46391;SDS011;32098;49.448;7.904;2022-07-29T13:49:59;3.45;;;2.10;;
46391;SDS011;32098;49.448;7.904;2022-07-29T13:52:27;3.50;;;2.33;;
46391;SDS011;32098;49.448;7.904;2022-07-29T13:54:54;3.15;;;2.17;;
46391;SDS011;32098;49.448;7.904;2022-07-29T13:57:20;5.47;;;2.10;;
46391;SDS011;32098;49.448;7.904;2022-07-29T13:59:47;5.60;;;2.30;;
46391;SDS011;32098;49.448;7.904;2022-07-29T14:02:19;4.10;;;2.33;;
46391;SDS011;32098;49.448;7.904;2022-07-29T14:04:51;3.25;;;2.20;;
46391;SDS011;32098;49.448;7.904;2022-07-29T14:07:18;7.20;;;2.40;;
46391;SDS011;32098;49.448;7.904;2022-07-29T14:09:44;2.75;;;2.10;;
46391;SDS011;32098;49.448;7.904;2022-07-29T14:12:11;4.20;;;1.95;;
46391;SDS011;32098;49.448;7.904;2022-07-29T14:14:38;5.75;;;1.90;;
46391;SDS011;32098;49.448;7.904;2022-07-29T14:17:04;4.57;;;1.80;;
46391;SDS011;32098;49.448;7.904;2022-07-29T14:19:32;2.88;;;1.80;;
46391;SDS011;32098;49.448;7.904;2022-07-29T14:22:05;4.45;;;1.80;;
46391;SDS011;32098;49.448;7.904;2022-07-29T14:24:33;2.13;;;1.60;;
46391;SDS011;32098;49.448;7.904;2022-07-29T14:27:02;4.78;;;2.40;;
46391;SDS011;32098;49.448;7.904;2022-07-29T14:29:33;5.25;;;1.70;;
46391;SDS011;32098;49.448;7.904;2022-07-29T14:32:07;3.83;;;1.50;;
46391;SDS011;32098;49.448;7.904;2022-07-29T14:34:37;2.83;;;1.63;;
46391;SDS011;32098;49.448;7.904;2022-07-29T14:37:04;4.03;;;1.58;;
46391;SDS011;32098;49.448;7.904;2022-07-29T14:39:32;2.30;;;1.50;;
46391;SDS011;32098;49.448;7.904;2022-07-29T14:42:04;3.88;;;1.65;;
46391;SDS011;32098;49.448;7.904;2022-07-29T14:44:31;2.00;;;1.80;;
46391;SDS011;32098;49.448;7.904;2022-07-29T14:46:58;4.18;;;1.67;;
46391;SDS011;32098;49.448;7.904;2022-07-29T14:49:33;5.20;;;1.65;;
46391;SDS011;32098;49.448;7.904;2022-07-29T14:52:00;2.85;;;1.92;;
46391;SDS011;32098;49.448;7.904;2022-07-29T14:54:27;4.55;;;1.90;;
46391;SDS011;32098;49.448;7.904;2022-07-29T14:56:53;2.88;;;1.70;;
46391;SDS011;32098;49.448;7.904;2022-07-29T14:59:23;2.28;;;1.77;;
46391;SDS011;32098;49.448;7.904;2022-07-29T15:01:49;5.18;;;1.92;;
46391;SDS011;32098;49.448;7.904;2022-07-29T15:04:16;4.40;;;1.67;;
46391;SDS011;32098;49.448;7.904;2022-07-29T15:06:42;2.05;;;1.65;;
46391;SDS011;32098;49.448;7.904;2022-07-29T15:09:09;3.15;;;1.55;;
46391;SDS011;32098;49.448;7.904;2022-07-29T15:11:36;4.40;;;2.13;;
46391;SDS011;32098;49.448;7.904;2022-07-29T15:14:04;2.47;;;1.77;;
46391;SDS011;32098;49.448;7.904;2022-07-29T15:16:31;3.03;;;1.63;;
46391;SDS011;32098;49.448;7.904;2022-07-29T15:18:59;3.05;;;1.50;;
46391;SDS011;32098;49.448;7.904;2022-07-29T15:21:26;2.85;;;1.67;;
46391;SDS011;32098;49.448;7.904;2022-07-29T15:23:53;3.65;;;1.90;;
46391;SDS011;32098;49.448;7.904;2022-07-29T15:26:20;4.07;;;2.00;;
46391;SDS011;32098;49.448;7.904;2022-07-29T15:28:47;3.10;;;1.83;;
46391;SDS011;32098;49.448;7.904;2022-07-29T15:31:14;2.38;;;1.70;;
46391;SDS011;32098;49.448;7.904;2022-07-29T15:33:40;6.97;;;1.90;;
46391;SDS011;32098;49.448;7.904;2022-07-29T15:36:07;4.63;;;1.88;;
46391;SDS011;32098;49.448;7.904;2022-07-29T15:38:33;1.95;;;1.75;;
46391;SDS011;32098;49.448;7.904;2022-07-29T15:41:06;4.05;;;1.50;;
46391;SDS011;32098;49.448;7.904;2022-07-29T15:43:33;2.55;;;1.70;;
46391;SDS011;32098;49.448;7.904;2022-07-29T15:46:01;2.00;;;1.70;;
46391;SDS011;32098;49.448;7.904;2022-07-29T15:48:47;2.72;;;2.08;;